createdAt,value
2018-06-19T00:00:32.924Z,19.60
2018-06-19T00:01:12.857Z,19.60
2018-06-19T00:01:46.419Z,19.60
2018-06-19T00:02:20.011Z,19.60
2018-06-19T00:02:54.297Z,19.60
2018-06-19T00:03:28.223Z,19.60
2018-06-19T00:04:01.757Z,19.60
2018-06-19T00:04:36.230Z,19.60
2018-06-19T00:05:43.847Z,19.50
2018-06-19T00:06:17.454Z,19.50
2018-06-19T00:06:51.006Z,19.50
2018-06-19T00:07:24.527Z,19.50
2018-06-19T00:07:59.053Z,19.50
2018-06-19T00:08:33.792Z,19.50
2018-06-19T00:09:08.358Z,19.40
2018-06-19T00:09:41.958Z,19.40
2018-06-19T00:10:15.514Z,19.40
2018-06-19T00:10:49.097Z,19.40
2018-06-19T00:11:22.682Z,19.40
2018-06-19T00:11:57.283Z,19.40
2018-06-19T00:12:30.866Z,19.40
2018-06-19T00:13:37.745Z,19.40
2018-06-19T00:14:11.317Z,19.40
2018-06-19T00:15:18.144Z,19.30
2018-06-19T00:15:51.750Z,19.30
2018-06-19T00:16:25.879Z,19.40
2018-06-19T00:18:11.840Z,19.30
2018-06-19T00:18:48.886Z,19.30
2018-06-19T00:19:23.036Z,19.30
2018-06-19T00:19:56.712Z,19.30
2018-06-19T00:20:30.391Z,19.30
2018-06-19T00:21:08.561Z,19.30
2018-06-19T00:21:50.340Z,19.30
2018-06-19T00:22:23.911Z,19.30
2018-06-19T00:22:57.534Z,19.30
2018-06-19T00:23:31.160Z,19.30
2018-06-19T00:24:04.741Z,19.30
2018-06-19T00:24:38.942Z,19.30
2018-06-19T00:25:12.528Z,19.30
2018-06-19T00:25:46.897Z,19.30
2018-06-19T00:26:20.633Z,19.30
2018-06-19T00:26:56.291Z,19.30
2018-06-19T00:27:30.460Z,19.30
2018-06-19T00:28:04.000Z,19.30
2018-06-19T00:28:40.368Z,19.30
2018-06-19T00:29:14.041Z,19.30
2018-06-19T00:29:47.596Z,19.30
2018-06-19T00:30:21.869Z,19.20
2018-06-19T00:30:55.479Z,19.20
2018-06-19T00:31:29.082Z,19.20
2018-06-19T00:32:02.740Z,19.20
2018-06-19T00:32:36.294Z,19.30
2018-06-19T00:33:09.910Z,19.30
2018-06-19T00:33:44.790Z,19.30
2018-06-19T00:34:18.693Z,19.30
2018-06-19T00:34:52.980Z,19.30
2018-06-19T00:35:26.517Z,19.20
2018-06-19T00:37:06.537Z,19.20
2018-06-19T00:37:40.689Z,19.20
2018-06-19T00:38:15.163Z,19.20
2018-06-19T00:38:49.480Z,19.20
2018-06-19T00:39:23.039Z,19.20
2018-06-19T00:39:56.579Z,19.10
2018-06-19T00:40:30.088Z,19.10
2018-06-19T00:41:03.654Z,19.20
2018-06-19T00:41:37.288Z,19.10
2018-06-19T00:42:10.860Z,19.20
2018-06-19T00:42:44.405Z,19.20
2018-06-19T00:43:18.475Z,19.10
2018-06-19T00:43:52.042Z,19.20
2018-06-19T00:44:25.605Z,19.10
2018-06-19T00:44:59.133Z,19.20
2018-06-19T00:45:33.451Z,19.10
2018-06-19T00:46:09.223Z,19.10
2018-06-19T00:46:45.288Z,19.10
2018-06-19T00:47:19.435Z,19.10
2018-06-19T00:47:53.247Z,19.10
2018-06-19T00:48:26.818Z,19.10
2018-06-19T00:49:00.405Z,19.10
2018-06-19T00:49:34.038Z,19.10
2018-06-19T00:50:07.563Z,19.10
2018-06-19T00:50:41.181Z,19.10
2018-06-19T00:51:14.746Z,19.10
2018-06-19T00:51:48.503Z,19.10
2018-06-19T00:52:22.045Z,19.10
2018-06-19T00:52:56.547Z,19.10
2018-06-19T00:54:03.329Z,19.10
2018-06-19T00:54:36.869Z,19.10
2018-06-19T00:55:11.040Z,19.10
2018-06-19T00:55:45.285Z,19.10
2018-06-19T00:56:30.070Z,19.10
2018-06-19T00:57:03.641Z,19.10
2018-06-19T00:57:37.308Z,19.10
2018-06-19T00:58:11.486Z,19.10
2018-06-19T00:58:45.035Z,19.10
2018-06-19T00:59:18.947Z,19.10
2018-06-19T00:59:52.508Z,19.10
2018-06-19T01:00:27.097Z,19.00
2018-06-19T01:01:00.604Z,19.00
2018-06-19T01:01:35.000Z,19.00
2018-06-19T01:02:08.581Z,19.00
2018-06-19T01:02:42.102Z,19.00
2018-06-19T01:03:15.699Z,19.00
2018-06-19T01:03:49.244Z,19.00
2018-06-19T01:04:22.999Z,19.00
2018-06-19T01:04:56.602Z,19.00
2018-06-19T01:05:30.851Z,19.00
2018-06-19T01:06:04.475Z,18.90
2018-06-19T01:06:38.334Z,19.00
2018-06-19T01:07:11.892Z,18.90
2018-06-19T01:07:46.348Z,18.90
2018-06-19T01:08:19.916Z,18.90
2018-06-19T01:08:53.780Z,18.90
2018-06-19T01:10:00.588Z,18.90
2018-06-19T01:10:35.048Z,18.90
2018-06-19T01:11:08.668Z,18.90
2018-06-19T01:11:42.856Z,18.90
2018-06-19T01:12:17.192Z,18.90
2018-06-19T01:12:50.782Z,18.90
2018-06-19T01:13:24.309Z,18.80
2018-06-19T01:13:57.907Z,18.80
2018-06-19T01:14:31.630Z,18.80
2018-06-19T01:15:05.274Z,18.80
2018-06-19T01:15:38.851Z,18.80
2018-06-19T01:16:13.243Z,18.80
2018-06-19T01:16:48.163Z,18.80
2018-06-19T01:17:21.749Z,18.80
2018-06-19T01:17:55.285Z,18.80
2018-06-19T01:18:28.792Z,18.80
2018-06-19T01:19:02.408Z,18.80
2018-06-19T01:19:36.069Z,18.80
2018-06-19T01:20:09.668Z,18.80
2018-06-19T01:20:43.224Z,18.70
2018-06-19T01:21:16.824Z,18.80
2018-06-19T01:21:50.307Z,18.70
2018-06-19T01:22:23.868Z,18.70
2018-06-19T01:22:57.447Z,18.70
2018-06-19T01:23:31.011Z,18.70
2018-06-19T01:24:04.653Z,18.70
2018-06-19T01:25:14.287Z,18.70
2018-06-19T01:25:48.475Z,18.70
2018-06-19T01:26:22.079Z,18.70
2018-06-19T01:26:55.705Z,18.70
2018-06-19T01:27:29.291Z,18.70
2018-06-19T01:28:02.894Z,18.70
2018-06-19T01:28:37.746Z,18.70
2018-06-19T01:29:12.147Z,18.70
2018-06-19T01:29:46.314Z,18.70
2018-06-19T01:30:21.579Z,18.70
2018-06-19T01:30:55.200Z,18.70
2018-06-19T01:31:29.451Z,18.70
2018-06-19T01:32:03.067Z,18.70
2018-06-19T01:32:36.680Z,18.70
2018-06-19T01:33:10.250Z,18.60
2018-06-19T01:34:17.158Z,18.60
2018-06-19T01:34:51.367Z,18.60
2018-06-19T01:35:24.954Z,18.60
2018-06-19T01:35:59.193Z,18.60
2018-06-19T01:36:32.833Z,18.60
2018-06-19T01:37:06.910Z,18.60
2018-06-19T01:37:40.475Z,18.60
2018-06-19T01:38:14.072Z,18.60
2018-06-19T01:38:47.706Z,18.60
2018-06-19T01:39:22.492Z,18.60
2018-06-19T01:39:56.604Z,18.60
2018-06-19T01:40:31.098Z,18.60
2018-06-19T01:41:06.479Z,18.60
2018-06-19T01:41:40.410Z,18.60
2018-06-19T01:42:14.007Z,18.60
2018-06-19T01:42:48.901Z,18.60
2018-06-19T01:43:23.111Z,18.60
2018-06-19T01:43:56.720Z,18.60
2018-06-19T01:44:30.441Z,18.60
2018-06-19T01:45:04.632Z,18.60
2018-06-19T01:45:38.187Z,18.60
2018-06-19T01:46:13.204Z,18.60
2018-06-19T01:46:46.782Z,18.60
2018-06-19T01:47:20.434Z,18.60
2018-06-19T01:47:55.233Z,18.50
2018-06-19T01:48:29.665Z,18.60
2018-06-19T01:49:03.432Z,18.50
2018-06-19T01:49:37.040Z,18.50
2018-06-19T01:50:11.361Z,18.50
2018-06-19T01:50:44.945Z,18.50
2018-06-19T01:51:18.559Z,18.50
2018-06-19T01:51:52.661Z,18.50
2018-06-19T01:52:27.171Z,18.50
2018-06-19T01:53:00.675Z,18.50
2018-06-19T01:54:07.479Z,18.60
2018-06-19T01:54:41.059Z,18.60
2018-06-19T01:55:15.247Z,18.50
2018-06-19T01:55:48.849Z,18.50
2018-06-19T01:56:23.123Z,18.60
2018-06-19T01:57:29.985Z,18.50
2018-06-19T01:58:03.530Z,18.50
2018-06-19T01:58:37.202Z,18.50
2018-06-19T01:59:10.775Z,18.50
2018-06-19T01:59:45.044Z,18.50
2018-06-19T02:00:19.925Z,18.50
2018-06-19T02:00:54.953Z,18.50
2018-06-19T02:01:28.566Z,18.60
2018-06-19T02:02:02.182Z,18.60
2018-06-19T02:02:35.830Z,18.50
2018-06-19T02:03:09.966Z,18.50
2018-06-19T02:03:44.440Z,18.50
2018-06-19T02:04:19.457Z,18.50
2018-06-19T02:04:53.020Z,18.50
2018-06-19T02:05:26.558Z,18.40
2018-06-19T02:06:33.425Z,18.40
2018-06-19T02:07:07.015Z,18.40
2018-06-19T02:07:40.630Z,18.40
2018-06-19T02:08:14.143Z,18.40
2018-06-19T02:08:47.656Z,18.40
2018-06-19T02:09:21.767Z,18.40
2018-06-19T02:09:55.654Z,18.40
2018-06-19T02:10:29.166Z,18.40
2018-06-19T02:11:03.240Z,18.30
2018-06-19T02:11:36.801Z,18.30
2018-06-19T02:12:10.335Z,18.30
2018-06-19T02:12:44.008Z,18.30
2018-06-19T02:13:18.382Z,18.30
2018-06-19T02:13:52.038Z,18.30
2018-06-19T02:14:25.607Z,18.30
2018-06-19T02:14:59.634Z,18.30
2018-06-19T02:15:33.284Z,18.30
2018-06-19T02:16:06.857Z,18.30
2018-06-19T02:16:40.414Z,18.30
2018-06-19T02:17:14.009Z,18.30
2018-06-19T02:17:47.573Z,18.40
2018-06-19T02:18:21.302Z,18.30
2018-06-19T02:18:54.966Z,18.40
2018-06-19T02:19:28.545Z,18.30
2018-06-19T02:20:02.691Z,18.40
2018-06-19T02:21:42.611Z,18.40
2018-06-19T02:22:16.155Z,18.40
2018-06-19T02:22:49.720Z,18.40
2018-06-19T02:23:24.360Z,18.40
2018-06-19T02:23:58.012Z,18.40
2018-06-19T02:25:05.265Z,18.40
2018-06-19T02:25:39.607Z,18.40
2018-06-19T02:26:13.726Z,18.40
2018-06-19T02:26:48.246Z,18.40
2018-06-19T02:27:21.813Z,18.40
2018-06-19T02:27:55.416Z,18.40
2018-06-19T02:28:30.026Z,18.30
2018-06-19T02:29:03.602Z,18.30
2018-06-19T02:29:37.962Z,18.30
2018-06-19T02:30:11.505Z,18.30
2018-06-19T02:30:45.037Z,18.30
2018-06-19T02:31:19.084Z,18.30
2018-06-19T02:31:53.281Z,18.40
2018-06-19T02:32:26.894Z,18.40
2018-06-19T02:33:00.598Z,18.40
2018-06-19T02:33:34.567Z,18.40
2018-06-19T02:34:08.099Z,18.40
2018-06-19T02:34:41.757Z,18.40
2018-06-19T02:35:16.229Z,18.40
2018-06-19T02:35:49.776Z,18.40
2018-06-19T02:36:23.311Z,18.40
2018-06-19T02:36:57.549Z,18.40
2018-06-19T02:37:31.736Z,18.40
2018-06-19T02:38:05.596Z,18.40
2018-06-19T02:39:46.162Z,18.40
2018-06-19T02:40:20.376Z,18.40
2018-06-19T02:40:53.923Z,18.40
2018-06-19T02:41:27.474Z,18.40
2018-06-19T02:42:01.048Z,18.40
2018-06-19T02:42:34.564Z,18.40
2018-06-19T02:43:08.962Z,18.40
2018-06-19T02:43:44.851Z,18.40
2018-06-19T02:44:18.417Z,18.50
2018-06-19T02:44:51.990Z,18.50
2018-06-19T02:45:26.051Z,18.40
2018-06-19T02:45:59.620Z,18.40
2018-06-19T02:47:06.688Z,18.40
2018-06-19T02:47:41.155Z,18.40
2018-06-19T02:48:14.685Z,18.40
2018-06-19T02:48:48.784Z,18.40
2018-06-19T02:49:23.111Z,18.40
2018-06-19T02:49:56.708Z,18.40
2018-06-19T02:50:30.290Z,18.40
2018-06-19T02:51:03.889Z,18.40
2018-06-19T02:51:37.520Z,18.40
2018-06-19T02:52:11.176Z,18.40
2018-06-19T02:52:45.034Z,18.40
2018-06-19T02:53:18.572Z,18.40
2018-06-19T02:53:52.156Z,18.40
2018-06-19T02:54:26.944Z,18.40
2018-06-19T02:55:00.496Z,18.40
2018-06-19T02:55:34.133Z,18.40
2018-06-19T02:56:07.656Z,18.40
2018-06-19T02:56:41.235Z,18.40
2018-06-19T02:57:14.786Z,18.40
2018-06-19T02:57:49.253Z,18.40
2018-06-19T02:58:56.419Z,18.30
2018-06-19T02:59:30.247Z,18.30
2018-06-19T03:00:04.387Z,18.30
2018-06-19T03:00:37.935Z,18.30
2018-06-19T03:01:11.520Z,18.30
2018-06-19T03:01:45.916Z,18.30
2018-06-19T03:02:19.955Z,18.30
2018-06-19T03:02:54.107Z,18.30
2018-06-19T03:03:27.693Z,18.30
2018-06-19T03:04:01.277Z,18.30
2018-06-19T03:04:34.800Z,18.30
2018-06-19T03:05:08.375Z,18.20
2018-06-19T03:05:41.990Z,18.30
2018-06-19T03:06:15.592Z,18.20
2018-06-19T03:06:49.179Z,18.30
2018-06-19T03:07:23.560Z,18.30
2018-06-19T03:07:57.655Z,18.20
2018-06-19T03:08:31.263Z,18.20
2018-06-19T03:09:07.785Z,18.20
2018-06-19T03:09:41.301Z,18.20
2018-06-19T03:10:14.862Z,18.20
2018-06-19T03:10:48.461Z,18.20
2018-06-19T03:11:22.037Z,18.20
2018-06-19T03:11:55.637Z,18.20
2018-06-19T03:12:29.674Z,18.20
2018-06-19T03:13:03.255Z,18.20
2018-06-19T03:13:36.788Z,18.20
2018-06-19T03:14:10.365Z,18.20
2018-06-19T03:14:43.933Z,18.20
2018-06-19T03:15:17.490Z,18.20
2018-06-19T03:15:51.631Z,18.20
2018-06-19T03:16:25.176Z,18.20
2018-06-19T03:16:58.720Z,18.20
2018-06-19T03:17:32.497Z,18.20
2018-06-19T03:18:06.072Z,18.20
2018-06-19T03:18:40.379Z,18.10
2018-06-19T03:19:13.948Z,18.10
2018-06-19T03:19:47.517Z,18.10
2018-06-19T03:20:21.086Z,18.10
2018-06-19T03:20:54.923Z,18.10
2018-06-19T03:21:28.489Z,18.10
2018-06-19T03:22:02.020Z,18.10
2018-06-19T03:22:36.208Z,18.10
2018-06-19T03:23:10.121Z,18.10
2018-06-19T03:23:43.604Z,18.20
2018-06-19T03:24:17.904Z,18.10
2018-06-19T03:24:51.455Z,18.10
2018-06-19T03:25:25.038Z,18.10
2018-06-19T03:25:58.594Z,18.10
2018-06-19T03:26:32.187Z,18.10
2018-06-19T03:27:05.713Z,18.10
2018-06-19T03:27:39.961Z,18.10
2018-06-19T03:28:13.487Z,18.10
2018-06-19T03:28:47.022Z,18.10
2018-06-19T03:29:20.563Z,18.10
2018-06-19T03:29:54.135Z,18.10
2018-06-19T03:30:28.224Z,18.10
2018-06-19T03:31:01.773Z,18.10
2018-06-19T03:31:35.291Z,18.10
2018-06-19T03:32:09.088Z,18.10
2018-06-19T03:32:43.474Z,18.10
2018-06-19T03:33:17.030Z,18.10
2018-06-19T03:33:50.786Z,18.10
2018-06-19T03:34:25.006Z,18.10
2018-06-19T03:34:58.564Z,18.10
2018-06-19T03:35:32.461Z,18.00
2018-06-19T03:36:06.000Z,18.10
2018-06-19T03:36:39.596Z,18.10
2018-06-19T03:37:13.124Z,18.10
2018-06-19T03:37:46.629Z,18.00
2018-06-19T03:38:20.321Z,18.00
2018-06-19T03:38:53.964Z,18.00
2018-06-19T03:39:27.655Z,18.00
2018-06-19T03:40:01.320Z,18.00
2018-06-19T03:40:35.799Z,18.00
2018-06-19T03:41:09.621Z,18.00
2018-06-19T03:41:46.418Z,18.00
2018-06-19T03:42:20.687Z,18.00
2018-06-19T03:42:58.722Z,18.00
2018-06-19T03:43:33.487Z,18.00
2018-06-19T03:44:14.725Z,18.10
2018-06-19T03:44:48.264Z,18.10
2018-06-19T03:45:21.839Z,18.10
2018-06-19T03:45:55.363Z,18.10
2018-06-19T03:46:28.872Z,18.10
2018-06-19T03:47:02.456Z,18.20
2018-06-19T03:47:36.771Z,18.20
2018-06-19T03:48:10.857Z,18.20
2018-06-19T03:48:44.448Z,18.20
2018-06-19T03:49:18.001Z,18.20
2018-06-19T03:49:52.312Z,18.20
2018-06-19T03:50:25.850Z,18.20
2018-06-19T03:50:59.412Z,18.20
2018-06-19T03:51:33.496Z,18.20
2018-06-19T03:52:07.103Z,18.20
2018-06-19T03:52:40.726Z,18.20
2018-06-19T03:53:14.293Z,18.20
2018-06-19T03:53:47.890Z,18.20
2018-06-19T03:54:21.412Z,18.20
2018-06-19T03:54:55.238Z,18.20
2018-06-19T03:55:28.827Z,18.20
2018-06-19T03:56:03.101Z,18.30
2018-06-19T03:56:37.979Z,18.20
2018-06-19T03:57:11.524Z,18.30
2018-06-19T03:57:45.146Z,18.30
2018-06-19T03:58:19.172Z,18.30
2018-06-19T03:58:53.892Z,18.30
2018-06-19T03:59:29.658Z,18.30
2018-06-19T04:00:03.490Z,18.40
2018-06-19T04:00:37.090Z,18.40
2018-06-19T04:01:10.633Z,18.40
2018-06-19T04:01:44.193Z,18.40
2018-06-19T04:02:17.782Z,18.40
2018-06-19T04:02:51.568Z,18.40
2018-06-19T04:03:25.149Z,18.40
2018-06-19T04:03:59.556Z,18.40
2018-06-19T04:04:33.632Z,18.40
2018-06-19T04:05:07.599Z,18.40
2018-06-19T04:05:41.112Z,18.40
2018-06-19T04:06:15.469Z,18.40
2018-06-19T04:06:49.094Z,18.40
2018-06-19T04:07:22.692Z,18.40
2018-06-19T04:07:56.316Z,18.40
2018-06-19T04:08:29.943Z,18.40
2018-06-19T04:09:05.486Z,18.40
2018-06-19T04:09:39.535Z,18.40
2018-06-19T04:10:13.133Z,18.40
2018-06-19T04:10:47.855Z,18.40
2018-06-19T04:11:21.419Z,18.40
2018-06-19T04:11:55.013Z,18.40
2018-06-19T04:12:28.624Z,18.40
2018-06-19T04:13:02.197Z,18.40
2018-06-19T04:13:36.544Z,18.50
2018-06-19T04:14:10.117Z,18.40
2018-06-19T04:14:43.730Z,18.40
2018-06-19T04:15:17.308Z,18.40
2018-06-19T04:15:50.848Z,18.40
2018-06-19T04:16:25.589Z,18.40
2018-06-19T04:16:59.120Z,18.40
2018-06-19T04:17:33.286Z,18.40
2018-06-19T04:18:08.412Z,18.40
2018-06-19T04:18:42.018Z,18.40
2018-06-19T04:19:15.613Z,18.40
2018-06-19T04:19:49.249Z,18.40
2018-06-19T04:20:24.137Z,18.40
2018-06-19T04:20:57.742Z,18.40
2018-06-19T04:21:31.535Z,18.40
2018-06-19T04:22:05.688Z,18.40
2018-06-19T04:22:40.557Z,18.40
2018-06-19T04:23:14.171Z,18.40
2018-06-19T04:23:47.786Z,18.40
2018-06-19T04:24:21.988Z,18.40
2018-06-19T04:24:57.565Z,18.40
2018-06-19T04:25:31.676Z,18.40
2018-06-19T04:26:05.331Z,18.40
2018-06-19T04:26:38.936Z,18.40
2018-06-19T04:27:12.526Z,18.40
2018-06-19T04:27:46.753Z,18.40
2018-06-19T04:28:20.927Z,18.40
2018-06-19T04:28:56.002Z,18.40
2018-06-19T04:29:29.883Z,18.40
2018-06-19T04:30:04.112Z,18.40
2018-06-19T04:30:37.697Z,18.40
2018-06-19T04:31:11.874Z,18.40
2018-06-19T04:31:46.385Z,18.40
2018-06-19T04:32:20.505Z,18.40
2018-06-19T04:32:54.059Z,18.40
2018-06-19T04:33:28.281Z,18.40
2018-06-19T04:34:02.484Z,18.40
2018-06-19T04:34:36.084Z,18.40
2018-06-19T04:35:10.822Z,18.40
2018-06-19T04:35:44.456Z,18.40
2018-06-19T04:36:20.010Z,18.40
2018-06-19T04:36:53.758Z,18.40
2018-06-19T04:37:27.357Z,18.40
2018-06-19T04:38:01.633Z,18.40
2018-06-19T04:38:35.258Z,18.40
2018-06-19T04:39:10.821Z,18.40
2018-06-19T04:39:44.380Z,18.40
2018-06-19T04:40:18.576Z,18.40
2018-06-19T04:40:52.138Z,18.40
2018-06-19T04:41:26.965Z,18.40
2018-06-19T04:42:00.597Z,18.40
2018-06-19T04:42:34.208Z,18.40
2018-06-19T04:43:07.931Z,18.40
2018-06-19T04:43:42.071Z,18.40
2018-06-19T04:44:15.600Z,18.40
2018-06-19T04:44:49.221Z,18.40
2018-06-19T04:45:23.161Z,18.40
2018-06-19T04:45:56.717Z,18.50
2018-06-19T04:46:30.276Z,18.50
2018-06-19T04:47:04.037Z,18.50
2018-06-19T04:47:37.691Z,18.50
2018-06-19T04:48:11.943Z,18.50
2018-06-19T04:48:45.586Z,18.50
2018-06-19T04:49:19.861Z,18.40
2018-06-19T04:49:54.352Z,18.40
2018-06-19T04:50:29.377Z,18.40
2018-06-19T04:51:03.860Z,18.40
2018-06-19T04:51:37.396Z,18.40
2018-06-19T04:52:10.957Z,18.40
2018-06-19T04:52:44.548Z,18.40
2018-06-19T04:53:19.125Z,18.40
2018-06-19T04:53:52.812Z,18.40
2018-06-19T04:54:26.407Z,18.40
2018-06-19T04:54:59.986Z,18.40
2018-06-19T04:55:34.422Z,18.40
2018-06-19T04:56:08.595Z,18.40
2018-06-19T04:56:42.174Z,18.40
2018-06-19T04:57:15.788Z,18.40
2018-06-19T04:57:49.387Z,18.40
2018-06-19T04:58:23.747Z,18.40
2018-06-19T04:58:57.420Z,18.40
2018-06-19T04:59:32.299Z,18.40
2018-06-19T05:00:06.063Z,18.50
2018-06-19T05:00:40.115Z,18.50
2018-06-19T05:01:13.971Z,18.40
2018-06-19T05:01:47.760Z,18.40
2018-06-19T05:02:21.383Z,18.40
2018-06-19T05:02:54.937Z,18.40
2018-06-19T05:03:29.032Z,18.40
2018-06-19T05:04:03.204Z,18.40
2018-06-19T05:04:37.503Z,18.40
2018-06-19T05:05:11.061Z,18.40
2018-06-19T05:05:44.592Z,18.40
2018-06-19T05:06:18.155Z,18.40
2018-06-19T05:06:52.488Z,18.40
2018-06-19T05:07:26.195Z,18.40
2018-06-19T05:07:59.817Z,18.40
2018-06-19T05:08:33.851Z,18.40
2018-06-19T05:09:10.700Z,18.40
2018-06-19T05:09:44.816Z,18.40
2018-06-19T05:10:19.237Z,18.40
2018-06-19T05:10:53.235Z,18.40
2018-06-19T05:11:26.789Z,18.40
2018-06-19T05:12:00.378Z,18.40
2018-06-19T05:12:34.649Z,18.40
2018-06-19T05:13:08.235Z,18.40
2018-06-19T05:13:41.888Z,18.40
2018-06-19T05:14:17.136Z,18.40
2018-06-19T05:14:50.687Z,18.40
2018-06-19T05:15:25.007Z,18.40
2018-06-19T05:15:59.201Z,18.40
2018-06-19T05:16:33.527Z,18.40
2018-06-19T05:17:07.879Z,18.40
2018-06-19T05:17:41.403Z,18.40
2018-06-19T05:18:15.765Z,18.50
2018-06-19T05:18:49.688Z,18.50
2018-06-19T05:19:23.339Z,18.50
2018-06-19T05:19:57.805Z,18.50
2018-06-19T05:20:31.442Z,18.50
2018-06-19T05:21:05.645Z,18.50
2018-06-19T05:22:13.332Z,18.50
2018-06-19T05:22:46.894Z,18.50
2018-06-19T05:23:21.226Z,18.50
2018-06-19T05:23:56.555Z,18.60
2018-06-19T05:24:31.223Z,18.50
2018-06-19T05:25:05.770Z,18.50
2018-06-19T05:25:39.371Z,18.60
2018-06-19T05:26:48.210Z,18.50
2018-06-19T05:27:23.044Z,18.50
2018-06-19T05:27:56.601Z,18.50
2018-06-19T05:28:30.130Z,18.50
2018-06-19T05:29:05.131Z,18.60
2018-06-19T05:29:38.801Z,18.50
2018-06-19T05:30:12.399Z,18.60
2018-06-19T05:30:46.007Z,18.60
2018-06-19T05:31:19.599Z,18.60
2018-06-19T05:31:53.895Z,18.60
2018-06-19T05:32:27.636Z,18.60
2018-06-19T05:33:35.156Z,18.60
2018-06-19T05:34:08.739Z,18.60
2018-06-19T05:34:43.107Z,18.60
2018-06-19T05:35:16.841Z,18.70
2018-06-19T05:35:51.735Z,18.70
2018-06-19T05:36:25.310Z,18.70
2018-06-19T05:36:58.847Z,18.70
2018-06-19T05:37:33.390Z,18.70
2018-06-19T05:38:07.003Z,18.70
2018-06-19T05:38:40.601Z,18.70
2018-06-19T05:39:14.787Z,18.70
2018-06-19T05:39:48.344Z,18.70
2018-06-19T05:40:22.006Z,18.70
2018-06-19T05:40:55.564Z,18.70
2018-06-19T05:41:29.195Z,18.70
2018-06-19T05:42:02.932Z,18.70
2018-06-19T05:42:36.523Z,18.70
2018-06-19T05:43:43.304Z,18.70
2018-06-19T05:44:17.952Z,18.70
2018-06-19T05:44:53.194Z,18.80
2018-06-19T05:45:27.800Z,18.70
2018-06-19T05:46:02.541Z,18.70
2018-06-19T05:46:36.656Z,18.70
2018-06-19T05:47:10.996Z,18.80
2018-06-19T05:47:45.242Z,18.80
2018-06-19T05:48:18.791Z,18.70
2018-06-19T05:48:52.424Z,18.70
2018-06-19T05:49:26.040Z,18.70
2018-06-19T05:49:59.641Z,18.70
2018-06-19T05:50:34.176Z,18.70
2018-06-19T05:51:08.726Z,18.70
2018-06-19T05:51:42.826Z,18.70
2018-06-19T05:52:16.779Z,18.80
2018-06-19T05:52:50.392Z,18.80
2018-06-19T05:53:24.919Z,18.70
2018-06-19T05:53:58.519Z,18.80
2018-06-19T05:54:32.800Z,18.80
2018-06-19T05:55:06.462Z,18.80
2018-06-19T05:55:41.251Z,18.80
2018-06-19T05:56:15.167Z,18.80
2018-06-19T05:56:49.917Z,18.90
2018-06-19T05:57:24.267Z,18.80
2018-06-19T05:57:57.776Z,18.90
2018-06-19T05:58:31.863Z,18.90
2018-06-19T05:59:06.281Z,18.90
2018-06-19T05:59:40.886Z,18.90
2018-06-19T06:00:14.500Z,18.90
2018-06-19T06:00:48.402Z,18.90
2018-06-19T06:01:22.030Z,18.90
2018-06-19T06:01:56.261Z,18.90
2018-06-19T06:02:30.459Z,18.90
2018-06-19T06:03:04.589Z,19.00
2018-06-19T06:03:38.788Z,19.00
2018-06-19T06:04:13.004Z,19.00
2018-06-19T06:04:47.548Z,19.00
2018-06-19T06:05:21.098Z,18.90
2018-06-19T06:05:55.183Z,18.90
2018-06-19T06:06:29.266Z,18.90
2018-06-19T06:07:03.333Z,18.90
2018-06-19T06:07:37.876Z,18.90
2018-06-19T06:08:11.444Z,18.90
2018-06-19T06:08:45.478Z,18.90
2018-06-19T06:09:19.659Z,18.90
2018-06-19T06:09:53.499Z,18.90
2018-06-19T06:10:27.608Z,18.90
2018-06-19T06:11:01.185Z,19.00
2018-06-19T06:11:35.345Z,19.00
2018-06-19T06:12:09.729Z,19.00
2018-06-19T06:12:43.505Z,19.00
2018-06-19T06:13:17.448Z,19.00
2018-06-19T06:13:51.236Z,19.00
2018-06-19T06:14:24.821Z,19.00
2018-06-19T06:14:59.406Z,19.10
2018-06-19T06:15:33.145Z,19.10
2018-06-19T06:16:06.710Z,19.00
2018-06-19T06:16:40.979Z,19.10
2018-06-19T06:17:15.376Z,19.10
2018-06-19T06:17:48.932Z,19.10
2018-06-19T06:18:23.112Z,19.10
2018-06-19T06:18:56.795Z,19.10
2018-06-19T06:19:30.392Z,19.10
2018-06-19T06:20:04.050Z,19.10
2018-06-19T06:20:38.073Z,19.10
2018-06-19T06:21:11.769Z,19.10
2018-06-19T06:21:45.395Z,19.10
2018-06-19T06:22:52.492Z,19.10
2018-06-19T06:23:26.243Z,19.10
2018-06-19T06:24:00.495Z,19.10
2018-06-19T06:24:34.697Z,19.10
2018-06-19T06:25:08.214Z,19.10
2018-06-19T06:25:43.077Z,19.10
2018-06-19T06:26:17.285Z,19.10
2018-06-19T06:26:50.811Z,19.10
2018-06-19T06:27:24.365Z,19.20
2018-06-19T06:27:58.695Z,19.20
2018-06-19T06:28:32.297Z,19.20
2018-06-19T06:29:06.438Z,19.20
2018-06-19T06:29:40.046Z,19.20
2018-06-19T06:30:13.649Z,19.20
2018-06-19T06:30:47.248Z,19.20
2018-06-19T06:31:20.854Z,19.20
2018-06-19T06:31:55.924Z,19.10
2018-06-19T06:32:29.562Z,19.20
2018-06-19T06:33:05.064Z,19.10
2018-06-19T06:33:40.779Z,19.20
2018-06-19T06:34:14.937Z,19.10
2018-06-19T06:34:49.268Z,19.10
2018-06-19T06:35:24.127Z,19.10
2018-06-19T06:35:57.855Z,19.10
2018-06-19T06:36:31.682Z,19.10
2018-06-19T06:37:39.932Z,19.10
2018-06-19T06:38:14.138Z,19.10
2018-06-19T06:38:48.913Z,19.10
2018-06-19T06:39:22.517Z,19.10
2018-06-19T06:39:56.692Z,19.10
2018-06-19T06:40:30.273Z,19.10
2018-06-19T06:41:03.869Z,19.10
2018-06-19T06:41:37.836Z,19.20
2018-06-19T06:42:11.851Z,19.20
2018-06-19T06:42:46.750Z,19.20
2018-06-19T06:43:20.909Z,19.20
2018-06-19T06:43:55.019Z,19.20
2018-06-19T06:44:28.638Z,19.20
2018-06-19T06:45:02.265Z,19.20
2018-06-19T06:46:09.770Z,19.20
2018-06-19T06:46:43.453Z,19.20
2018-06-19T06:47:17.072Z,19.20
2018-06-19T06:47:50.608Z,19.20
2018-06-19T06:48:24.376Z,19.20
2018-06-19T06:48:57.896Z,19.10
2018-06-19T06:49:31.503Z,19.10
2018-06-19T06:50:05.994Z,19.10
2018-06-19T06:50:39.543Z,19.10
2018-06-19T06:51:13.793Z,19.10
2018-06-19T06:51:47.537Z,19.10
2018-06-19T06:52:21.605Z,19.10
2018-06-19T06:52:55.855Z,19.10
2018-06-19T06:53:29.954Z,19.00
2018-06-19T06:54:03.612Z,19.00
2018-06-19T06:54:37.219Z,19.00
2018-06-19T06:55:11.281Z,19.10
2018-06-19T06:55:45.795Z,19.00
2018-06-19T06:56:19.441Z,19.00
2018-06-19T06:56:57.924Z,19.10
2018-06-19T06:57:31.476Z,19.10
2018-06-19T06:58:05.259Z,19.10
2018-06-19T06:58:38.846Z,19.10
2018-06-19T06:59:12.425Z,19.10
2018-06-19T06:59:45.963Z,19.10
2018-06-19T07:00:20.380Z,19.10
2018-06-19T07:00:54.312Z,19.10
2018-06-19T07:01:29.260Z,19.10
2018-06-19T07:02:04.715Z,19.10
2018-06-19T07:02:38.911Z,19.10
2018-06-19T07:03:12.533Z,19.10
2018-06-19T07:03:46.673Z,19.10
2018-06-19T07:04:20.299Z,19.10
2018-06-19T07:04:54.215Z,19.10
2018-06-19T07:05:27.921Z,19.10
2018-06-19T07:06:01.996Z,19.10
2018-06-19T07:06:35.555Z,19.10
2018-06-19T07:07:09.119Z,19.20
2018-06-19T07:07:43.454Z,19.20
2018-06-19T07:08:17.696Z,19.20
2018-06-19T07:08:51.284Z,19.20
2018-06-19T07:09:24.891Z,19.20
2018-06-19T07:09:59.393Z,19.20
2018-06-19T07:10:32.925Z,19.20
2018-06-19T07:11:07.930Z,19.20
2018-06-19T07:11:41.487Z,19.20
2018-06-19T07:12:15.019Z,19.30
2018-06-19T07:12:48.696Z,19.30
2018-06-19T07:13:22.668Z,19.30
2018-06-19T07:13:56.231Z,19.30
2018-06-19T07:14:29.807Z,19.30
2018-06-19T07:15:36.720Z,19.30
2018-06-19T07:16:10.296Z,19.30
2018-06-19T07:16:43.930Z,19.30
2018-06-19T07:17:17.787Z,19.30
2018-06-19T07:17:51.389Z,19.30
2018-06-19T07:18:25.651Z,19.30
2018-06-19T07:18:59.337Z,19.30
2018-06-19T07:19:33.068Z,19.30
2018-06-19T07:20:39.977Z,19.30
2018-06-19T07:21:13.531Z,19.30
2018-06-19T07:21:47.148Z,19.30
2018-06-19T07:22:20.826Z,19.30
2018-06-19T07:22:54.412Z,19.30
2018-06-19T07:23:27.984Z,19.30
2018-06-19T07:24:01.541Z,19.30
2018-06-19T07:24:35.617Z,19.30
2018-06-19T07:25:09.209Z,19.40
2018-06-19T07:25:43.480Z,19.40
2018-06-19T07:26:17.077Z,19.40
2018-06-19T07:26:51.275Z,19.40
2018-06-19T07:27:25.479Z,19.30
2018-06-19T07:27:59.110Z,19.40
2018-06-19T07:28:32.915Z,19.40
2018-06-19T07:29:06.486Z,19.40
2018-06-19T07:29:40.080Z,19.40
2018-06-19T07:30:14.814Z,19.40
2018-06-19T07:30:49.737Z,19.40
2018-06-19T07:31:23.568Z,19.40
2018-06-19T07:32:30.619Z,19.40
2018-06-19T07:33:05.376Z,19.40
2018-06-19T07:33:40.327Z,19.40
2018-06-19T07:34:15.158Z,19.40
2018-06-19T07:34:49.121Z,19.40
2018-06-19T07:35:22.885Z,19.40